sensor_id;sensor_type;location;lat;lon;timestamp;P1;durP1;ratioP1;P2;durP2;ratioP2
42194;SDS011;27863;49.440;11.102;2023-09-30T00:02:51;4.78;;;2.88;;
42194;SDS011;27863;49.440;11.102;2023-09-30T00:05:52;5.45;;;3.33;;
42194;SDS011;27863;49.440;11.102;2023-09-30T00:08:52;4.63;;;2.60;;
42194;SDS011;27863;49.440;11.102;2023-09-30T00:11:54;5.15;;;3.40;;
42194;SDS011;27863;49.440;11.102;2023-09-30T00:14:55;4.88;;;3.10;;
42194;SDS011;27863;49.440;11.102;2023-09-30T00:17:57;6.68;;;4.35;;
42194;SDS011;27863;49.440;11.102;2023-09-30T00:20:59;5.20;;;3.05;;
42194;SDS011;27863;49.440;11.102;2023-09-30T00:24:00;8.02;;;4.05;;
42194;SDS011;27863;49.440;11.102;2023-09-30T00:27:01;5.63;;;2.95;;
42194;SDS011;27863;49.440;11.102;2023-09-30T00:30:02;4.25;;;3.08;;
42194;SDS011;27863;49.440;11.102;2023-09-30T00:33:03;7.03;;;4.05;;
42194;SDS011;27863;49.440;11.102;2023-09-30T00:36:10;5.90;;;3.38;;
42194;SDS011;27863;49.440;11.102;2023-09-30T00:39:13;6.95;;;3.90;;
42194;SDS011;27863;49.440;11.102;2023-09-30T00:42:13;4.63;;;2.80;;
42194;SDS011;27863;49.440;11.102;2023-09-30T00:45:14;6.60;;;3.60;;
42194;SDS011;27863;49.440;11.102;2023-09-30T00:48:15;4.40;;;3.25;;
42194;SDS011;27863;49.440;11.102;2023-09-30T00:51:17;3.92;;;3.03;;
42194;SDS011;27863;49.440;11.102;2023-09-30T00:54:17;5.68;;;3.00;;
42194;SDS011;27863;49.440;11.102;2023-09-30T00:57:19;7.38;;;3.78;;
42194;SDS011;27863;49.440;11.102;2023-09-30T01:00:21;4.60;;;2.83;;
42194;SDS011;27863;49.440;11.102;2023-09-30T01:03:23;3.95;;;3.50;;
42194;SDS011;27863;49.440;11.102;2023-09-30T01:06:24;4.20;;;2.67;;
42194;SDS011;27863;49.440;11.102;2023-09-30T01:09:25;5.97;;;3.25;;
42194;SDS011;27863;49.440;11.102;2023-09-30T01:12:26;5.45;;;2.55;;
42194;SDS011;27863;49.440;11.102;2023-09-30T01:15:28;5.75;;;2.50;;
42194;SDS011;27863;49.440;11.102;2023-09-30T01:18:30;4.47;;;2.58;;
42194;SDS011;27863;49.440;11.102;2023-09-30T01:21:33;4.28;;;3.05;;
42194;SDS011;27863;49.440;11.102;2023-09-30T01:24:39;6.18;;;3.10;;
42194;SDS011;27863;49.440;11.102;2023-09-30T01:27:41;4.75;;;2.10;;
42194;SDS011;27863;49.440;11.102;2023-09-30T01:30:43;5.03;;;2.85;;
42194;SDS011;27863;49.440;11.102;2023-09-30T01:33:43;3.63;;;2.63;;
42194;SDS011;27863;49.440;11.102;2023-09-30T01:36:44;4.95;;;3.42;;
42194;SDS011;27863;49.440;11.102;2023-09-30T01:39:45;4.85;;;2.95;;
42194;SDS011;27863;49.440;11.102;2023-09-30T01:42:45;4.32;;;2.40;;
42194;SDS011;27863;49.440;11.102;2023-09-30T01:45:46;6.30;;;3.17;;
42194;SDS011;27863;49.440;11.102;2023-09-30T01:48:47;22.27;;;3.38;;
42194;SDS011;27863;49.440;11.102;2023-09-30T01:51:48;5.35;;;2.70;;
42194;SDS011;27863;49.440;11.102;2023-09-30T01:54:49;4.38;;;2.70;;
42194;SDS011;27863;49.440;11.102;2023-09-30T01:57:50;4.22;;;3.00;;
42194;SDS011;27863;49.440;11.102;2023-09-30T02:01:00;5.70;;;3.65;;
42194;SDS011;27863;49.440;11.102;2023-09-30T02:04:02;4.43;;;3.20;;
42194;SDS011;27863;49.440;11.102;2023-09-30T02:07:06;5.18;;;3.60;;
42194;SDS011;27863;49.440;11.102;2023-09-30T02:10:07;4.80;;;3.10;;
42194;SDS011;27863;49.440;11.102;2023-09-30T02:13:08;6.55;;;4.03;;
42194;SDS011;27863;49.440;11.102;2023-09-30T02:16:13;5.28;;;3.40;;
42194;SDS011;27863;49.440;11.102;2023-09-30T02:19:15;5.13;;;3.58;;
42194;SDS011;27863;49.440;11.102;2023-09-30T02:22:17;4.70;;;3.38;;
42194;SDS011;27863;49.440;11.102;2023-09-30T02:25:17;7.05;;;3.95;;
42194;SDS011;27863;49.440;11.102;2023-09-30T02:28:18;5.43;;;3.75;;
42194;SDS011;27863;49.440;11.102;2023-09-30T02:31:20;4.65;;;2.97;;
42194;SDS011;27863;49.440;11.102;2023-09-30T02:34:20;5.80;;;3.63;;
42194;SDS011;27863;49.440;11.102;2023-09-30T02:37:22;5.10;;;3.30;;
42194;SDS011;27863;49.440;11.102;2023-09-30T02:40:23;3.95;;;2.83;;
42194;SDS011;27863;49.440;11.102;2023-09-30T02:43:24;4.88;;;2.85;;
42194;SDS011;27863;49.440;11.102;2023-09-30T02:46:27;3.75;;;2.30;;
42194;SDS011;27863;49.440;11.102;2023-09-30T02:49:28;7.20;;;2.70;;
42194;SDS011;27863;49.440;11.102;2023-09-30T02:52:29;3.53;;;2.15;;
42194;SDS011;27863;49.440;11.102;2023-09-30T02:55:33;3.35;;;1.77;;
42194;SDS011;27863;49.440;11.102;2023-09-30T02:58:33;2.58;;;1.50;;
42194;SDS011;27863;49.440;11.102;2023-09-30T03:01:35;5.00;;;1.35;;
42194;SDS011;27863;49.440;11.102;2023-09-30T03:04:37;3.35;;;1.65;;
42194;SDS011;27863;49.440;11.102;2023-09-30T03:07:38;1.83;;;1.20;;
42194;SDS011;27863;49.440;11.102;2023-09-30T03:10:41;2.28;;;1.67;;
42194;SDS011;27863;49.440;11.102;2023-09-30T03:13:42;1.23;;;0.93;;
42194;SDS011;27863;49.440;11.102;2023-09-30T03:16:43;1.60;;;1.13;;
42194;SDS011;27863;49.440;11.102;2023-09-30T03:19:44;2.38;;;1.10;;
42194;SDS011;27863;49.440;11.102;2023-09-30T03:22:45;1.35;;;1.17;;
42194;SDS011;27863;49.440;11.102;2023-09-30T03:25:48;1.80;;;0.90;;
42194;SDS011;27863;49.440;11.102;2023-09-30T03:28:49;1.65;;;1.10;;
42194;SDS011;27863;49.440;11.102;2023-09-30T03:31:54;1.63;;;1.45;;
42194;SDS011;27863;49.440;11.102;2023-09-30T03:34:59;5.80;;;1.70;;
42194;SDS011;27863;49.440;11.102;2023-09-30T03:38:01;3.92;;;1.90;;
42194;SDS011;27863;49.440;11.102;2023-09-30T03:41:02;3.63;;;1.80;;
42194;SDS011;27863;49.440;11.102;2023-09-30T03:44:03;3.35;;;2.00;;
42194;SDS011;27863;49.440;11.102;2023-09-30T03:47:04;3.67;;;2.15;;
42194;SDS011;27863;49.440;11.102;2023-09-30T03:50:05;3.03;;;2.22;;
42194;SDS011;27863;49.440;11.102;2023-09-30T03:53:06;2.78;;;1.92;;
42194;SDS011;27863;49.440;11.102;2023-09-30T03:56:13;2.60;;;1.85;;
42194;SDS011;27863;49.440;11.102;2023-09-30T03:59:13;3.55;;;2.20;;
42194;SDS011;27863;49.440;11.102;2023-09-30T04:02:14;2.13;;;1.65;;
42194;SDS011;27863;49.440;11.102;2023-09-30T04:05:16;1.63;;;1.48;;
42194;SDS011;27863;49.440;11.102;2023-09-30T04:08:21;2.10;;;1.90;;
42194;SDS011;27863;49.440;11.102;2023-09-30T04:11:23;6.28;;;2.00;;
42194;SDS011;27863;49.440;11.102;2023-09-30T04:14:24;2.53;;;1.75;;
42194;SDS011;27863;49.440;11.102;2023-09-30T04:17:26;4.03;;;2.08;;
42194;SDS011;27863;49.440;11.102;2023-09-30T04:20:28;3.38;;;1.73;;
42194;SDS011;27863;49.440;11.102;2023-09-30T04:23:30;3.13;;;1.52;;
42194;SDS011;27863;49.440;11.102;2023-09-30T04:26:32;2.08;;;1.67;;
42194;SDS011;27863;49.440;11.102;2023-09-30T04:29:33;3.97;;;1.83;;
42194;SDS011;27863;49.440;11.102;2023-09-30T04:32:35;4.00;;;1.67;;
42194;SDS011;27863;49.440;11.102;2023-09-30T04:35:38;1.88;;;1.50;;
42194;SDS011;27863;49.440;11.102;2023-09-30T04:38:39;2.17;;;1.80;;
42194;SDS011;27863;49.440;11.102;2023-09-30T04:41:40;2.65;;;1.50;;
42194;SDS011;27863;49.440;11.102;2023-09-30T04:44:47;3.10;;;1.60;;
42194;SDS011;27863;49.440;11.102;2023-09-30T04:47:47;3.13;;;2.03;;
42194;SDS011;27863;49.440;11.102;2023-09-30T04:50:51;2.03;;;1.48;;
42194;SDS011;27863;49.440;11.102;2023-09-30T04:53:52;2.60;;;1.67;;
42194;SDS011;27863;49.440;11.102;2023-09-30T04:56:54;2.67;;;1.40;;
42194;SDS011;27863;49.440;11.102;2023-09-30T04:59:56;1.85;;;1.35;;
42194;SDS011;27863;49.440;11.102;2023-09-30T05:02:59;2.67;;;2.20;;
42194;SDS011;27863;49.440;11.102;2023-09-30T05:06:01;3.55;;;1.88;;
42194;SDS011;27863;49.440;11.102;2023-09-30T05:09:03;2.78;;;1.75;;
42194;SDS011;27863;49.440;11.102;2023-09-30T05:12:05;3.15;;;2.10;;
42194;SDS011;27863;49.440;11.102;2023-09-30T05:15:06;2.80;;;1.80;;
42194;SDS011;27863;49.440;11.102;2023-09-30T05:18:09;1.85;;;1.40;;
42194;SDS011;27863;49.440;11.102;2023-09-30T05:21:10;2.70;;;1.80;;
42194;SDS011;27863;49.440;11.102;2023-09-30T05:24:11;1.98;;;1.67;;
42194;SDS011;27863;49.440;11.102;2023-09-30T05:27:12;1.83;;;1.45;;
42194;SDS011;27863;49.440;11.102;2023-09-30T05:30:14;3.35;;;1.63;;
42194;SDS011;27863;49.440;11.102;2023-09-30T05:33:16;2.97;;;2.22;;
42194;SDS011;27863;49.440;11.102;2023-09-30T05:36:18;3.05;;;1.52;;
42194;SDS011;27863;49.440;11.102;2023-09-30T05:39:24;3.28;;;2.08;;
42194;SDS011;27863;49.440;11.102;2023-09-30T05:42:25;2.85;;;1.95;;
42194;SDS011;27863;49.440;11.102;2023-09-30T05:45:26;2.67;;;1.63;;
42194;SDS011;27863;49.440;11.102;2023-09-30T05:48:30;3.00;;;1.95;;
42194;SDS011;27863;49.440;11.102;2023-09-30T05:51:31;1.95;;;1.75;;
42194;SDS011;27863;49.440;11.102;2023-09-30T05:54:33;3.78;;;2.72;;
42194;SDS011;27863;49.440;11.102;2023-09-30T05:57:35;2.55;;;1.65;;
42194;SDS011;27863;49.440;11.102;2023-09-30T06:00:39;2.70;;;2.10;;
42194;SDS011;27863;49.440;11.102;2023-09-30T06:03:41;2.90;;;2.30;;
42194;SDS011;27863;49.440;11.102;2023-09-30T06:06:42;3.15;;;1.92;;
42194;SDS011;27863;49.440;11.102;2023-09-30T06:09:43;2.22;;;1.98;;
42194;SDS011;27863;49.440;11.102;2023-09-30T06:12:45;3.60;;;2.30;;
42194;SDS011;27863;49.440;11.102;2023-09-30T06:15:47;3.33;;;2.30;;
42194;SDS011;27863;49.440;11.102;2023-09-30T06:18:48;2.83;;;2.47;;
42194;SDS011;27863;49.440;11.102;2023-09-30T06:21:51;4.35;;;2.90;;
42194;SDS011;27863;49.440;11.102;2023-09-30T06:24:52;4.05;;;2.35;;
42194;SDS011;27863;49.440;11.102;2023-09-30T06:27:53;3.47;;;2.75;;
42194;SDS011;27863;49.440;11.102;2023-09-30T06:30:58;3.65;;;1.88;;
42194;SDS011;27863;49.440;11.102;2023-09-30T06:33:59;6.93;;;6.30;;
42194;SDS011;27863;49.440;11.102;2023-09-30T06:37:02;9.52;;;8.35;;
42194;SDS011;27863;49.440;11.102;2023-09-30T06:40:07;6.97;;;6.38;;
42194;SDS011;27863;49.440;11.102;2023-09-30T06:43:09;6.05;;;4.75;;
42194;SDS011;27863;49.440;11.102;2023-09-30T06:46:29;7.50;;;3.05;;
42194;SDS011;27863;49.440;11.102;2023-09-30T06:49:30;4.78;;;2.72;;
42194;SDS011;27863;49.440;11.102;2023-09-30T06:52:35;2.78;;;2.42;;
42194;SDS011;27863;49.440;11.102;2023-09-30T06:55:39;3.08;;;2.25;;
42194;SDS011;27863;49.440;11.102;2023-09-30T06:58:40;4.72;;;2.25;;
42194;SDS011;27863;49.440;11.102;2023-09-30T07:01:44;3.67;;;2.45;;
42194;SDS011;27863;49.440;11.102;2023-09-30T07:04:44;3.53;;;2.10;;
42194;SDS011;27863;49.440;11.102;2023-09-30T07:07:46;2.58;;;1.98;;
42194;SDS011;27863;49.440;11.102;2023-09-30T07:10:47;2.60;;;2.30;;
42194;SDS011;27863;49.440;11.102;2023-09-30T07:13:52;2.63;;;2.40;;
42194;SDS011;27863;49.440;11.102;2023-09-30T07:16:54;3.70;;;2.38;;
42194;SDS011;27863;49.440;11.102;2023-09-30T07:19:56;2.97;;;2.53;;
42194;SDS011;27863;49.440;11.102;2023-09-30T07:23:01;3.47;;;2.65;;
42194;SDS011;27863;49.440;11.102;2023-09-30T07:26:04;4.38;;;2.78;;
42194;SDS011;27863;49.440;11.102;2023-09-30T07:29:04;22.40;;;16.98;;
42194;SDS011;27863;49.440;11.102;2023-09-30T07:32:06;4.07;;;3.22;;
42194;SDS011;27863;49.440;11.102;2023-09-30T07:35:08;4.03;;;2.15;;
42194;SDS011;27863;49.440;11.102;2023-09-30T07:38:09;3.30;;;1.73;;
42194;SDS011;27863;49.440;11.102;2023-09-30T07:41:10;4.20;;;2.63;;
42194;SDS011;27863;49.440;11.102;2023-09-30T07:44:11;2.15;;;1.95;;
42194;SDS011;27863;49.440;11.102;2023-09-30T07:47:11;3.35;;;1.92;;
42194;SDS011;27863;49.440;11.102;2023-09-30T07:50:12;10.70;;;2.55;;
42194;SDS011;27863;49.440;11.102;2023-09-30T07:53:13;4.43;;;2.80;;
42194;SDS011;27863;49.440;11.102;2023-09-30T07:56:13;3.53;;;2.40;;
42194;SDS011;27863;49.440;11.102;2023-09-30T07:59:14;6.75;;;2.50;;
42194;SDS011;27863;49.440;11.102;2023-09-30T08:02:15;2.83;;;1.83;;
42194;SDS011;27863;49.440;11.102;2023-09-30T08:05:17;2.97;;;2.42;;
42194;SDS011;27863;49.440;11.102;2023-09-30T08:08:19;2.38;;;1.77;;
42194;SDS011;27863;49.440;11.102;2023-09-30T08:11:21;3.70;;;2.35;;
42194;SDS011;27863;49.440;11.102;2023-09-30T08:14:21;3.38;;;2.30;;
42194;SDS011;27863;49.440;11.102;2023-09-30T08:17:23;3.15;;;2.25;;
42194;SDS011;27863;49.440;11.102;2023-09-30T08:20:24;2.95;;;1.80;;
42194;SDS011;27863;49.440;11.102;2023-09-30T08:23:29;3.13;;;2.40;;
42194;SDS011;27863;49.440;11.102;2023-09-30T08:26:30;4.18;;;1.83;;
42194;SDS011;27863;49.440;11.102;2023-09-30T08:29:34;3.20;;;2.35;;
42194;SDS011;27863;49.440;11.102;2023-09-30T08:32:39;3.65;;;2.03;;
42194;SDS011;27863;49.440;11.102;2023-09-30T08:35:42;2.45;;;1.83;;
42194;SDS011;27863;49.440;11.102;2023-09-30T08:38:46;2.38;;;2.17;;
42194;SDS011;27863;49.440;11.102;2023-09-30T08:41:49;2.72;;;1.95;;
42194;SDS011;27863;49.440;11.102;2023-09-30T08:44:51;2.88;;;1.85;;
42194;SDS011;27863;49.440;11.102;2023-09-30T08:47:56;7.70;;;2.60;;
42194;SDS011;27863;49.440;11.102;2023-09-30T08:51:04;3.33;;;1.48;;
42194;SDS011;27863;49.440;11.102;2023-09-30T08:54:04;4.60;;;2.20;;
42194;SDS011;27863;49.440;11.102;2023-09-30T08:57:05;3.95;;;2.25;;
42194;SDS011;27863;49.440;11.102;2023-09-30T09:00:09;2.60;;;2.22;;
42194;SDS011;27863;49.440;11.102;2023-09-30T09:03:13;4.68;;;2.13;;
42194;SDS011;27863;49.440;11.102;2023-09-30T09:06:15;2.85;;;2.28;;
42194;SDS011;27863;49.440;11.102;2023-09-30T09:09:16;3.47;;;2.70;;
42194;SDS011;27863;49.440;11.102;2023-09-30T09:12:18;3.90;;;2.30;;
42194;SDS011;27863;49.440;11.102;2023-09-30T09:15:20;5.40;;;2.67;;
42194;SDS011;27863;49.440;11.102;2023-09-30T09:18:30;2.20;;;2.00;;
42194;SDS011;27863;49.440;11.102;2023-09-30T09:21:33;1.80;;;1.67;;
42194;SDS011;27863;49.440;11.102;2023-09-30T09:24:38;2.95;;;2.15;;
42194;SDS011;27863;49.440;11.102;2023-09-30T09:27:46;3.13;;;2.13;;
42194;SDS011;27863;49.440;11.102;2023-09-30T09:30:48;3.35;;;2.25;;
42194;SDS011;27863;49.440;11.102;2023-09-30T09:33:50;2.67;;;2.08;;
42194;SDS011;27863;49.440;11.102;2023-09-30T09:36:51;3.95;;;2.67;;
42194;SDS011;27863;49.440;11.102;2023-09-30T09:39:52;3.85;;;2.15;;
42194;SDS011;27863;49.440;11.102;2023-09-30T09:42:55;3.45;;;1.60;;
42194;SDS011;27863;49.440;11.102;2023-09-30T09:45:57;3.38;;;2.40;;
42194;SDS011;27863;49.440;11.102;2023-09-30T09:48:58;2.50;;;1.70;;
42194;SDS011;27863;49.440;11.102;2023-09-30T09:51:59;3.08;;;1.80;;
42194;SDS011;27863;49.440;11.102;2023-09-30T09:55:01;5.15;;;2.58;;
42194;SDS011;27863;49.440;11.102;2023-09-30T09:58:02;2.45;;;2.25;;
42194;SDS011;27863;49.440;11.102;2023-09-30T10:01:07;4.00;;;2.65;;
42194;SDS011;27863;49.440;11.102;2023-09-30T10:04:12;2.47;;;1.88;;
42194;SDS011;27863;49.440;11.102;2023-09-30T10:07:19;4.65;;;2.70;;
42194;SDS011;27863;49.440;11.102;2023-09-30T10:10:22;5.22;;;2.72;;
42194;SDS011;27863;49.440;11.102;2023-09-30T10:17:12;3.38;;;2.15;;
42194;SDS011;27863;49.440;11.102;2023-09-30T10:20:12;3.72;;;2.65;;
42194;SDS011;27863;49.440;11.102;2023-09-30T10:26:17;4.53;;;2.53;;
42194;SDS011;27863;49.440;11.102;2023-09-30T10:29:20;3.75;;;2.88;;
42194;SDS011;27863;49.440;11.102;2023-09-30T10:32:20;3.42;;;2.78;;
42194;SDS011;27863;49.440;11.102;2023-09-30T10:38:43;3.58;;;2.63;;
42194;SDS011;27863;49.440;11.102;2023-09-30T10:41:48;3.95;;;2.80;;
42194;SDS011;27863;49.440;11.102;2023-09-30T10:44:50;3.35;;;2.78;;
42194;SDS011;27863;49.440;11.102;2023-09-30T10:47:50;3.85;;;2.10;;
42194;SDS011;27863;49.440;11.102;2023-09-30T10:53:53;3.05;;;2.58;;
42194;SDS011;27863;49.440;11.102;2023-09-30T10:57:00;3.05;;;2.22;;
42194;SDS011;27863;49.440;11.102;2023-09-30T11:00:10;3.40;;;2.63;;
42194;SDS011;27863;49.440;11.102;2023-09-30T11:03:14;3.35;;;2.40;;
42194;SDS011;27863;49.440;11.102;2023-09-30T11:06:17;4.95;;;2.45;;
42194;SDS011;27863;49.440;11.102;2023-09-30T11:09:21;5.22;;;2.70;;
42194;SDS011;27863;49.440;11.102;2023-09-30T11:12:22;3.78;;;2.13;;
42194;SDS011;27863;49.440;11.102;2023-09-30T11:15:23;5.85;;;2.45;;
42194;SDS011;27863;49.440;11.102;2023-09-30T11:18:28;3.35;;;2.17;;
42194;SDS011;27863;49.440;11.102;2023-09-30T11:21:30;8.55;;;2.65;;
42194;SDS011;27863;49.440;11.102;2023-09-30T11:24:34;3.72;;;2.28;;
42194;SDS011;27863;49.440;11.102;2023-09-30T11:27:36;4.07;;;2.47;;
42194;SDS011;27863;49.440;11.102;2023-09-30T11:30:52;4.07;;;2.28;;
42194;SDS011;27863;49.440;11.102;2023-09-30T11:33:56;3.10;;;2.50;;
42194;SDS011;27863;49.440;11.102;2023-09-30T11:37:01;2.67;;;2.38;;
42194;SDS011;27863;49.440;11.102;2023-09-30T11:40:09;3.17;;;2.70;;
42194;SDS011;27863;49.440;11.102;2023-09-30T11:43:16;3.28;;;2.03;;
42194;SDS011;27863;49.440;11.102;2023-09-30T11:46:17;6.75;;;2.50;;
42194;SDS011;27863;49.440;11.102;2023-09-30T11:52:54;3.53;;;2.40;;
42194;SDS011;27863;49.440;11.102;2023-09-30T11:55:56;5.60;;;2.50;;
42194;SDS011;27863;49.440;11.102;2023-09-30T11:58:59;4.15;;;2.58;;
42194;SDS011;27863;49.440;11.102;2023-09-30T12:02:02;3.00;;;2.15;;
42194;SDS011;27863;49.440;11.102;2023-09-30T12:05:11;3.35;;;2.25;;
42194;SDS011;27863;49.440;11.102;2023-09-30T12:08:13;4.60;;;2.60;;
42194;SDS011;27863;49.440;11.102;2023-09-30T12:11:14;4.40;;;2.33;;
42194;SDS011;27863;49.440;11.102;2023-09-30T12:14:16;3.78;;;3.00;;
42194;SDS011;27863;49.440;11.102;2023-09-30T12:17:16;3.95;;;2.65;;
42194;SDS011;27863;49.440;11.102;2023-09-30T12:20:17;2.80;;;2.05;;
42194;SDS011;27863;49.440;11.102;2023-09-30T12:23:19;2.78;;;2.40;;
42194;SDS011;27863;49.440;11.102;2023-09-30T12:26:20;4.32;;;3.08;;
42194;SDS011;27863;49.440;11.102;2023-09-30T12:29:21;4.28;;;2.85;;
42194;SDS011;27863;49.440;11.102;2023-09-30T12:32:23;4.68;;;2.67;;
42194;SDS011;27863;49.440;11.102;2023-09-30T12:35:24;4.78;;;2.60;;
42194;SDS011;27863;49.440;11.102;2023-09-30T12:38:25;9.18;;;3.20;;
42194;SDS011;27863;49.440;11.102;2023-09-30T12:41:26;5.40;;;2.72;;
42194;SDS011;27863;49.440;11.102;2023-09-30T12:44:27;4.05;;;2.80;;
42194;SDS011;27863;49.440;11.102;2023-09-30T12:47:29;3.30;;;2.40;;
42194;SDS011;27863;49.440;11.102;2023-09-30T12:50:30;5.15;;;2.63;;
42194;SDS011;27863;49.440;11.102;2023-09-30T12:53:30;4.03;;;2.60;;
42194;SDS011;27863;49.440;11.102;2023-09-30T12:56:32;4.70;;;2.97;;
42194;SDS011;27863;49.440;11.102;2023-09-30T12:59:37;296.50;;;17.25;;
42194;SDS011;27863;49.440;11.102;2023-09-30T13:02:37;170.60;;;16.63;;
42194;SDS011;27863;49.440;11.102;2023-09-30T13:05:39;79.97;;;7.07;;
42194;SDS011;27863;49.440;11.102;2023-09-30T13:08:39;25.33;;;3.75;;
42194;SDS011;27863;49.440;11.102;2023-09-30T13:11:40;6.57;;;3.13;;
42194;SDS011;27863;49.440;11.102;2023-09-30T13:14:41;5.80;;;2.97;;
42194;SDS011;27863;49.440;11.102;2023-09-30T13:17:42;4.30;;;2.67;;
42194;SDS011;27863;49.440;11.102;2023-09-30T13:20:43;9.82;;;3.08;;
42194;SDS011;27863;49.440;11.102;2023-09-30T13:23:44;4.18;;;2.38;;
42194;SDS011;27863;49.440;11.102;2023-09-30T13:26:47;4.25;;;2.80;;
42194;SDS011;27863;49.440;11.102;2023-09-30T13:29:47;4.90;;;3.00;;
42194;SDS011;27863;49.440;11.102;2023-09-30T13:32:55;3.63;;;2.45;;
42194;SDS011;27863;49.440;11.102;2023-09-30T13:35:56;5.97;;;3.72;;
42194;SDS011;27863;49.440;11.102;2023-09-30T13:38:58;4.53;;;2.78;;
42194;SDS011;27863;49.440;11.102;2023-09-30T13:41:59;3.28;;;2.40;;
42194;SDS011;27863;49.440;11.102;2023-09-30T13:45:01;3.90;;;2.65;;
42194;SDS011;27863;49.440;11.102;2023-09-30T13:48:03;3.95;;;3.08;;
42194;SDS011;27863;49.440;11.102;2023-09-30T13:51:06;5.05;;;2.80;;
42194;SDS011;27863;49.440;11.102;2023-09-30T13:54:09;6.05;;;3.75;;
42194;SDS011;27863;49.440;11.102;2023-09-30T13:57:11;3.63;;;3.20;;
42194;SDS011;27863;49.440;11.102;2023-09-30T14:00:12;4.32;;;2.97;;
42194;SDS011;27863;49.440;11.102;2023-09-30T14:03:15;5.00;;;3.65;;
42194;SDS011;27863;49.440;11.102;2023-09-30T14:06:17;4.00;;;2.65;;
42194;SDS011;27863;49.440;11.102;2023-09-30T14:09:17;9.10;;;8.00;;
42194;SDS011;27863;49.440;11.102;2023-09-30T14:12:18;5.32;;;4.00;;
42194;SDS011;27863;49.440;11.102;2023-09-30T14:15:19;4.45;;;4.05;;
42194;SDS011;27863;49.440;11.102;2023-09-30T14:18:20;4.13;;;3.30;;
42194;SDS011;27863;49.440;11.102;2023-09-30T14:21:21;4.50;;;3.05;;
42194;SDS011;27863;49.440;11.102;2023-09-30T14:24:21;4.30;;;2.90;;
42194;SDS011;27863;49.440;11.102;2023-09-30T14:27:22;4.88;;;3.35;;
42194;SDS011;27863;49.440;11.102;2023-09-30T14:30:22;6.32;;;4.13;;
42194;SDS011;27863;49.440;11.102;2023-09-30T14:33:28;5.38;;;3.10;;
42194;SDS011;27863;49.440;11.102;2023-09-30T14:36:28;5.43;;;3.75;;
42194;SDS011;27863;49.440;11.102;2023-09-30T14:39:30;4.93;;;4.05;;
42194;SDS011;27863;49.440;11.102;2023-09-30T14:42:31;4.55;;;3.28;;
42194;SDS011;27863;49.440;11.102;2023-09-30T14:45:31;8.10;;;4.55;;
42194;SDS011;27863;49.440;11.102;2023-09-30T14:48:33;4.68;;;3.70;;
42194;SDS011;27863;49.440;11.102;2023-09-30T14:51:35;10.32;;;4.65;;
42194;SDS011;27863;49.440;11.102;2023-09-30T14:54:35;4.45;;;3.95;;
42194;SDS011;27863;49.440;11.102;2023-09-30T14:57:37;4.45;;;3.20;;
42194;SDS011;27863;49.440;11.102;2023-09-30T15:00:38;5.50;;;3.42;;
42194;SDS011;27863;49.440;11.102;2023-09-30T15:03:39;5.82;;;4.53;;
42194;SDS011;27863;49.440;11.102;2023-09-30T15:06:41;5.20;;;3.72;;
42194;SDS011;27863;49.440;11.102;2023-09-30T15:09:51;3.50;;;3.20;;
42194;SDS011;27863;49.440;11.102;2023-09-30T15:12:54;5.07;;;3.40;;
42194;SDS011;27863;49.440;11.102;2023-09-30T15:15:55;4.32;;;3.50;;
42194;SDS011;27863;49.440;11.102;2023-09-30T15:18:55;6.10;;;3.40;;
42194;SDS011;27863;49.440;11.102;2023-09-30T15:21:56;6.03;;;5.43;;
42194;SDS011;27863;49.440;11.102;2023-09-30T15:24:58;10.60;;;9.48;;
42194;SDS011;27863;49.440;11.102;2023-09-30T15:27:58;9.90;;;8.93;;
42194;SDS011;27863;49.440;11.102;2023-09-30T15:30:59;4.07;;;3.65;;
42194;SDS011;27863;49.440;11.102;2023-09-30T15:34:04;10.77;;;6.80;;
42194;SDS011;27863;49.440;11.102;2023-09-30T15:37:06;9.70;;;5.05;;
42194;SDS011;27863;49.440;11.102;2023-09-30T15:40:08;5.47;;;4.43;;
42194;SDS011;27863;49.440;11.102;2023-09-30T15:43:09;6.07;;;3.97;;
42194;SDS011;27863;49.440;11.102;2023-09-30T15:46:10;6.63;;;4.88;;
42194;SDS011;27863;49.440;11.102;2023-09-30T15:49:11;6.32;;;4.60;;
42194;SDS011;27863;49.440;11.102;2023-09-30T15:52:11;8.52;;;6.28;;
42194;SDS011;27863;49.440;11.102;2023-09-30T15:55:12;4.65;;;3.92;;
42194;SDS011;27863;49.440;11.102;2023-09-30T15:58:12;9.75;;;7.75;;
42194;SDS011;27863;49.440;11.102;2023-09-30T16:01:15;5.03;;;4.43;;
42194;SDS011;27863;49.440;11.102;2023-09-30T16:04:16;6.15;;;3.80;;
42194;SDS011;27863;49.440;11.102;2023-09-30T16:07:17;4.35;;;3.60;;
42194;SDS011;27863;49.440;11.102;2023-09-30T16:10:18;4.97;;;3.95;;
42194;SDS011;27863;49.440;11.102;2023-09-30T16:13:19;9.05;;;7.10;;
42194;SDS011;27863;49.440;11.102;2023-09-30T16:16:19;12.05;;;10.07;;
42194;SDS011;27863;49.440;11.102;2023-09-30T16:19:20;11.60;;;10.60;;
42194;SDS011;27863;49.440;11.102;2023-09-30T16:22:21;9.32;;;8.45;;
42194;SDS011;27863;49.440;11.102;2023-09-30T16:25:21;6.22;;;5.63;;
42194;SDS011;27863;49.440;11.102;2023-09-30T16:28:23;4.93;;;4.00;;
42194;SDS011;27863;49.440;11.102;2023-09-30T16:31:25;7.45;;;5.18;;
42194;SDS011;27863;49.440;11.102;2023-09-30T16:34:30;5.60;;;4.57;;
42194;SDS011;27863;49.440;11.102;2023-09-30T16:37:32;6.20;;;5.55;;
42194;SDS011;27863;49.440;11.102;2023-09-30T16:40:34;4.88;;;4.20;;
42194;SDS011;27863;49.440;11.102;2023-09-30T16:43:37;7.20;;;4.22;;
42194;SDS011;27863;49.440;11.102;2023-09-30T16:46:39;5.75;;;4.25;;
42194;SDS011;27863;49.440;11.102;2023-09-30T16:49:39;5.47;;;3.88;;
42194;SDS011;27863;49.440;11.102;2023-09-30T16:52:40;6.43;;;4.47;;
42194;SDS011;27863;49.440;11.102;2023-09-30T16:55:42;5.18;;;4.20;;
42194;SDS011;27863;49.440;11.102;2023-09-30T16:58:44;7.05;;;4.18;;
42194;SDS011;27863;49.440;11.102;2023-09-30T17:01:46;8.10;;;5.05;;
42194;SDS011;27863;49.440;11.102;2023-09-30T17:04:47;7.80;;;4.40;;
42194;SDS011;27863;49.440;11.102;2023-09-30T17:07:49;6.25;;;4.68;;
42194;SDS011;27863;49.440;11.102;2023-09-30T17:10:49;5.85;;;4.55;;
42194;SDS011;27863;49.440;11.102;2023-09-30T17:13:50;13.13;;;7.57;;
42194;SDS011;27863;49.440;11.102;2023-09-30T17:16:52;7.13;;;5.53;;
42194;SDS011;27863;49.440;11.102;2023-09-30T17:19:55;5.05;;;4.30;;
42194;SDS011;27863;49.440;11.102;2023-09-30T17:22:57;4.88;;;3.90;;
42194;SDS011;27863;49.440;11.102;2023-09-30T17:26:03;4.68;;;4.13;;
42194;SDS011;27863;49.440;11.102;2023-09-30T17:29:06;5.43;;;3.88;;
42194;SDS011;27863;49.440;11.102;2023-09-30T17:32:07;7.65;;;4.55;;
42194;SDS011;27863;49.440;11.102;2023-09-30T17:35:08;6.90;;;4.88;;
42194;SDS011;27863;49.440;11.102;2023-09-30T17:38:09;8.45;;;7.05;;
42194;SDS011;27863;49.440;11.102;2023-09-30T17:41:10;15.93;;;12.27;;
42194;SDS011;27863;49.440;11.102;2023-09-30T17:44:12;6.75;;;5.72;;
42194;SDS011;27863;49.440;11.102;2023-09-30T17:47:17;5.45;;;4.95;;
42194;SDS011;27863;49.440;11.102;2023-09-30T17:50:23;7.78;;;5.95;;
42194;SDS011;27863;49.440;11.102;2023-09-30T17:53:23;7.13;;;5.85;;
42194;SDS011;27863;49.440;11.102;2023-09-30T17:56:24;7.78;;;5.90;;
42194;SDS011;27863;49.440;11.102;2023-09-30T17:59:26;6.20;;;4.90;;
42194;SDS011;27863;49.440;11.102;2023-09-30T18:02:27;6.32;;;5.00;;
42194;SDS011;27863;49.440;11.102;2023-09-30T18:05:28;6.65;;;5.47;;
42194;SDS011;27863;49.440;11.102;2023-09-30T18:08:28;9.18;;;8.27;;
42194;SDS011;27863;49.440;11.102;2023-09-30T18:11:29;6.95;;;6.25;;
42194;SDS011;27863;49.440;11.102;2023-09-30T18:14:30;6.72;;;5.47;;
42194;SDS011;27863;49.440;11.102;2023-09-30T18:17:31;5.88;;;5.35;;